Time;durP1;ratioP1;P1;durP2;ratioP2;P2;SDS_P1;SDS_P2;PMS_P1;PMS_P2;Temp;Humidity;BMP_temperature;BMP_pressure;BME280_temperature;BME280_humidity;BME280_pressure;Samples;Min_cycle;Max_cycle;Signal;HPM_P1;HPM_P2
2020/12/06 00:02:38;;;;;;;;;30.50;27.75;;;;;;;;12736828;27;8831;-49
2020/12/06 00:08:39;;;;;;;;;34.25;26.50;;;;;;;;12735957;27;8827;-49
2020/12/06 00:14:40;;;;;;;;;35.75;29.50;;;;;;;;12737335;27;9741;-49
2020/12/06 00:20:42;;;;;;;;;31.25;30.50;;;;;;;;12735001;27;8851;-48
2020/12/06 00:26:43;;;;;;;;;35.25;29.50;;;;;;;;12735720;27;8839;-52
2020/12/06 00:32:44;;;;;;;;;39.00;37.50;;;;;;;;12735541;27;8853;-51
2020/12/06 00:38:47;;;;;;;;;34.25;25.25;;;;;;;;12734635;27;8815;-51
2020/12/06 00:44:49;;;;;;;;;41.75;36.00;;;;;;;;12735642;27;8835;-50
2020/12/06 00:50:51;;;;;;;;;40.50;36.50;;;;;;;;12725624;27;8830;-53
2020/12/06 00:56:57;;;;;;;;;39.50;36.75;;;;;;;;12715654;27;8835;-50
2020/12/06 01:02:58;;;;;;;;;40.75;34.50;;;;;;;;12733150;27;8847;-49
2020/12/06 01:08:59;;;;;;;;;29.00;29.00;;;;;;;;12732843;27;9922;-51
2020/12/06 01:15:01;;;;;;;;;32.25;28.25;;;;;;;;12734129;27;8843;-48
2020/12/06 01:21:03;;;;;;;;;37.50;36.00;;;;;;;;12732380;27;8827;-51
2020/12/06 01:27:04;;;;;;;;;44.50;37.25;;;;;;;;12714199;27;8839;-51
2020/12/06 01:33:06;;;;;;;;;41.50;32.25;;;;;;;;12732291;27;8915;-49
2020/12/06 01:39:07;;;;;;;;;20.25;18.25;;;;;;;;12731319;27;8819;-49
2020/12/06 01:45:09;;;;;;;;;21.75;19.75;;;;;;;;12733427;27;8835;-51
2020/12/06 01:51:10;;;;;;;;;42.25;31.75;;;;;;;;12731260;27;8922;-48
2020/12/06 01:57:11;;;;;;;;;38.25;32.50;;;;;;;;12732301;27;8819;-50
2020/12/06 02:03:13;;;;;;;;;26.25;26.00;;;;;;;;12728173;27;8847;-49
2020/12/06 02:09:15;;;;;;;;;32.50;27.75;;;;;;;;12730813;27;8831;-50
2020/12/06 02:15:16;;;;;;;;;36.50;30.00;;;;;;;;12732451;27;8839;-48
2020/12/06 02:21:18;;;;;;;;;32.50;28.00;;;;;;;;12711416;27;8827;-47
2020/12/06 02:27:19;;;;;;;;;32.00;28.25;;;;;;;;12730252;27;8866;-49
2020/12/06 02:33:20;;;;;;;;;31.00;28.75;;;;;;;;12726129;27;8831;-49
2020/12/06 02:39:23;;;;;;;;;31.25;27.00;;;;;;;;12730065;27;9596;-48
2020/12/06 02:45:25;;;;;;;;;38.50;34.00;;;;;;;;12730999;27;8862;-49
2020/12/06 02:51:27;;;;;;;;;30.75;28.25;;;;;;;;12729296;27;8906;-48
2020/12/06 02:57:28;;;;;;;;;32.50;26.75;;;;;;;;12729681;27;8819;-51
2020/12/06 03:03:30;;;;;;;;;37.25;35.00;;;;;;;;12729976;27;8855;-51
2020/12/06 03:09:31;;;;;;;;;25.75;20.50;;;;;;;;12729715;27;8950;-47
2020/12/06 03:15:34;;;;;;;;;30.00;26.50;;;;;;;;12731232;27;8823;-47
2020/12/06 03:21:35;;;;;;;;;28.00;21.00;;;;;;;;12730293;27;8823;-47
2020/12/06 03:27:37;;;;;;;;;32.75;27.00;;;;;;;;12737820;27;8881;-49
2020/12/06 03:33:38;;;;;;;;;31.25;25.75;;;;;;;;12738623;27;8843;-50
2020/12/06 03:39:40;;;;;;;;;24.50;21.00;;;;;;;;12737262;27;8823;-52
2020/12/06 03:45:41;;;;;;;;;32.00;26.25;;;;;;;;12739812;27;8907;-51
2020/12/06 03:51:42;;;;;;;;;25.50;24.75;;;;;;;;12736435;27;8855;-51
2020/12/06 03:57:44;;;;;;;;;28.50;24.75;;;;;;;;12737292;27;8827;-48
2020/12/06 04:03:46;;;;;;;;;27.75;23.00;;;;;;;;12738115;27;8842;-49
2020/12/06 04:09:47;;;;;;;;;34.25;25.75;;;;;;;;12735971;27;8837;-49
2020/12/06 04:15:48;;;;;;;;;22.75;22.00;;;;;;;;12737049;27;8839;-50
2020/12/06 04:21:50;;;;;;;;;24.25;24.25;;;;;;;;12716648;27;8889;-52
2020/12/06 04:27:51;;;;;;;;;27.50;23.50;;;;;;;;12734204;27;8851;-47
2020/12/06 04:33:52;;;;;;;;;20.50;20.25;;;;;;;;12719612;27;8961;-47
2020/12/06 04:39:54;;;;;;;;;27.50;21.50;;;;;;;;12734053;27;8823;-49
2020/12/06 04:45:56;;;;;;;;;23.75;23.00;;;;;;;;12735920;27;8934;-49
2020/12/06 04:52:02;;;;;;;;;32.50;29.75;;;;;;;;12733868;27;8911;-47
2020/12/06 04:58:04;;;;;;;;;31.50;27.00;;;;;;;;12733795;27;8847;-49
2020/12/06 05:04:14;;;;;;;;;30.00;25.00;;;;;;;;13114022;22;8880;-49
2020/12/06 05:10:16;;;;;;;;;34.00;28.50;;;;;;;;12584497;28;8837;-53
2020/12/06 05:16:20;;;;;;;;;37.00;32.75;;;;;;;;12584571;28;8878;-49
2020/12/06 05:22:25;;;;;;;;;30.75;28.00;;;;;;;;12583830;28;8857;-50
2020/12/06 05:28:26;;;;;;;;;27.25;21.00;;;;;;;;12584456;28;8841;-51
2020/12/06 05:34:28;;;;;;;;;30.25;28.25;;;;;;;;12583911;28;8869;-52
2020/12/06 05:40:30;;;;;;;;;30.00;27.00;;;;;;;;12583614;28;8841;-54
2020/12/06 05:46:36;;;;;;;;;29.50;27.25;;;;;;;;12583644;28;9732;-52
2020/12/06 05:52:37;;;;;;;;;32.75;27.25;;;;;;;;12575012;28;8856;-48
2020/12/06 05:58:43;;;;;;;;;27.00;26.25;;;;;;;;12583946;28;8857;-49
2020/12/06 06:04:46;;;;;;;;;31.25;26.75;;;;;;;;12580105;28;8845;-51
2020/12/06 06:11:03;;;;;;;;;31.25;26.75;;;;;;;;12579845;28;8842;-50
2020/12/06 06:17:16;;;;;;;;;32.00;32.00;;;;;;;;12574560;28;9605;-48
2020/12/06 06:23:18;;;;;;;;;17.25;15.75;;;;;;;;12578519;28;8838;-52
2020/12/06 06:29:20;;;;;;;;;26.50;23.00;;;;;;;;12580232;28;8861;-53
2020/12/06 06:35:22;;;;;;;;;19.75;17.00;;;;;;;;12578665;28;8884;-49
2020/12/06 06:41:24;;;;;;;;;25.00;22.50;;;;;;;;12579674;28;8838;-49
2020/12/06 06:47:28;;;;;;;;;26.00;24.75;;;;;;;;12569129;28;8841;-48
2020/12/06 06:53:29;;;;;;;;;22.25;20.25;;;;;;;;12577864;28;8865;-50
2020/12/06 06:59:43;;;;;;;;;22.00;20.25;;;;;;;;12587064;28;8857;-51
2020/12/06 07:05:45;;;;;;;;;18.50;17.25;;;;;;;;12587398;28;8862;-52
2020/12/06 07:11:49;;;;;;;;;20.75;20.00;;;;;;;;12589403;28;8906;-51
2020/12/06 07:17:52;;;;;;;;;20.50;18.50;;;;;;;;12586710;28;8849;-52
2020/12/06 07:23:54;;;;;;;;;17.25;14.50;;;;;;;;12578952;28;8849;-48
2020/12/06 07:29:55;;;;;;;;;16.75;15.25;;;;;;;;12586985;28;8934;-49
2020/12/06 07:35:57;;;;;;;;;26.00;17.25;;;;;;;;12586443;28;8972;-51
2020/12/06 07:41:58;;;;;;;;;16.75;16.75;;;;;;;;12587001;28;8849;-49
2020/12/06 07:48:00;;;;;;;;;21.25;19.25;;;;;;;;12585585;28;8857;-49
2020/12/06 07:54:03;;;;;;;;;16.50;16.50;;;;;;;;12585522;28;8849;-52
2020/12/06 08:00:11;;;;;;;;;18.00;15.50;;;;;;;;12586824;28;8850;-53
2020/12/06 08:06:15;;;;;;;;;26.00;21.25;;;;;;;;12584146;28;8854;-53
2020/12/06 08:12:19;;;;;;;;;20.75;14.75;;;;;;;;12585798;28;8962;-51
2020/12/06 08:18:22;;;;;;;;;19.25;17.00;;;;;;;;12584625;28;9645;-52
2020/12/06 08:24:24;;;;;;;;;15.00;15.00;;;;;;;;12585370;28;8860;-52
2020/12/06 08:30:28;;;;;;;;;16.50;16.50;;;;;;;;12584726;28;8857;-54
2020/12/06 08:36:29;;;;;;;;;18.50;17.00;;;;;;;;12583588;28;9641;-51
2020/12/06 08:42:30;;;;;;;;;19.00;14.00;;;;;;;;12584316;28;8904;-55
2020/12/06 08:48:32;;;;;;;;;17.00;16.50;;;;;;;;12582615;28;9610;-56
2020/12/06 08:54:36;;;;;;;;;17.75;16.50;;;;;;;;12583127;28;8849;-56
2020/12/06 09:00:38;;;;;;;;;17.25;17.00;;;;;;;;12573026;28;8944;-51
2020/12/06 09:06:39;;;;;;;;;16.50;13.00;;;;;;;;12581406;28;9649;-52
2020/12/06 09:12:40;;;;;;;;;14.75;14.00;;;;;;;;12582778;28;8853;-53
2020/12/06 09:18:42;;;;;;;;;23.50;20.00;;;;;;;;12580891;28;8852;-53
2020/12/06 09:24:43;;;;;;;;;14.75;14.75;;;;;;;;12581373;28;8830;-51
2020/12/06 09:30:45;;;;;;;;;26.50;21.50;;;;;;;;12581041;28;8838;-53
2020/12/06 09:36:46;;;;;;;;;27.25;26.50;;;;;;;;12580056;28;9653;-53
2020/12/06 09:42:47;;;;;;;;;40.75;37.25;;;;;;;;12582423;28;8822;-53
2020/12/06 09:48:49;;;;;;;;;38.00;34.00;;;;;;;;12580263;28;8857;-54
2020/12/06 09:54:50;;;;;;;;;36.75;33.50;;;;;;;;12580109;28;8854;-54
2020/12/06 10:00:52;;;;;;;;;43.25;36.50;;;;;;;;12580332;28;8870;-52
2020/12/06 10:06:53;;;;;;;;;41.75;39.00;;;;;;;;12571006;28;8841;-54
2020/12/06 10:12:55;;;;;;;;;37.50;34.00;;;;;;;;12579967;28;8845;-52
2020/12/06 10:18:56;;;;;;;;;40.00;37.25;;;;;;;;12571597;28;8856;-53
2020/12/06 10:24:58;;;;;;;;;45.25;43.00;;;;;;;;12578675;28;8841;-54
2020/12/06 10:30:59;;;;;;;;;37.00;32.25;;;;;;;;12583321;28;8866;-54
2020/12/06 10:37:01;;;;;;;;;36.00;33.00;;;;;;;;12595143;28;9598;-53
2020/12/06 10:43:02;;;;;;;;;42.00;33.75;;;;;;;;12596067;28;8846;-53
2020/12/06 10:49:04;;;;;;;;;36.75;35.00;;;;;;;;12594276;28;8846;-52
2020/12/06 10:55:05;;;;;;;;;29.25;25.00;;;;;;;;12595974;28;8845;-55
2020/12/06 11:01:07;;;;;;;;;40.25;37.00;;;;;;;;12595846;28;8822;-53
2020/12/06 11:07:08;;;;;;;;;33.00;32.75;;;;;;;;12594647;28;8849;-53
2020/12/06 11:13:10;;;;;;;;;29.50;26.50;;;;;;;;12595770;28;8850;-51
2020/12/06 11:19:11;;;;;;;;;28.00;28.00;;;;;;;;12594824;28;8841;-53
2020/12/06 11:25:12;;;;;;;;;47.00;36.25;;;;;;;;12593472;28;8841;-53
2020/12/06 11:31:15;;;;;;;;;36.00;32.75;;;;;;;;12595357;28;8858;-56
2020/12/06 11:37:16;;;;;;;;;27.50;24.25;;;;;;;;12593130;28;8877;-53
2020/12/06 11:43:19;;;;;;;;;35.00;30.75;;;;;;;;12590463;28;8848;-52
2020/12/06 11:49:20;;;;;;;;;33.25;31.25;;;;;;;;12585075;28;8845;-52
2020/12/06 11:55:22;;;;;;;;;37.50;32.25;;;;;;;;12585529;28;9598;-54
2020/12/06 12:01:24;;;;;;;;;36.50;32.25;;;;;;;;12586709;28;8826;-55
2020/12/06 12:07:25;;;;;;;;;37.25;31.25;;;;;;;;12585343;28;8857;-51
2020/12/06 12:13:27;;;;;;;;;42.00;34.25;;;;;;;;12586812;28;9567;-54
2020/12/06 12:19:29;;;;;;;;;35.75;33.50;;;;;;;;12584203;28;8877;-55
2020/12/06 12:25:31;;;;;;;;;38.00;34.50;;;;;;;;12583539;28;8852;-54
2020/12/06 12:31:32;;;;;;;;;35.25;34.25;;;;;;;;12586143;28;8838;-51
2020/12/06 12:37:33;;;;;;;;;35.25;31.00;;;;;;;;12580973;28;8854;-52
2020/12/06 12:43:35;;;;;;;;;33.50;32.00;;;;;;;;12584629;28;9606;-54
2020/12/06 12:49:36;;;;;;;;;31.50;27.00;;;;;;;;12582868;28;8842;-52
2020/12/06 12:55:38;;;;;;;;;37.25;29.75;;;;;;;;12582712;28;8857;-52
2020/12/06 13:01:40;;;;;;;;;16.25;15.25;;;;;;;;12583359;28;8845;-55
2020/12/06 13:07:41;;;;;;;;;18.50;17.00;;;;;;;;12581921;28;8826;-53
2020/12/06 13:13:43;;;;;;;;;39.50;35.25;;;;;;;;12582935;28;9605;-54
2020/12/06 13:19:44;;;;;;;;;24.00;20.00;;;;;;;;12581214;28;8861;-55
2020/12/06 13:25:46;;;;;;;;;40.00;38.25;;;;;;;;12580504;28;8841;-55
2020/12/06 13:31:51;;;;;;;;;33.75;25.75;;;;;;;;12581741;28;8856;-54
2020/12/06 13:37:53;;;;;;;;;34.00;30.50;;;;;;;;12571672;28;8864;-51
2020/12/06 13:43:54;;;;;;;;;26.25;22.75;;;;;;;;12565975;28;8846;-55
2020/12/06 13:49:56;;;;;;;;;39.50;34.00;;;;;;;;12579468;28;8830;-53
2020/12/06 13:55:58;;;;;;;;;33.50;33.25;;;;;;;;12573990;28;8826;-54
2020/12/06 14:02:00;;;;;;;;;37.00;33.25;;;;;;;;12579885;28;8869;-56
2020/12/06 14:08:01;;;;;;;;;36.25;35.50;;;;;;;;12578141;28;8852;-52
2020/12/06 14:14:02;;;;;;;;;37.75;35.50;;;;;;;;12581093;28;8821;-55
2020/12/06 14:20:05;;;;;;;;;45.00;36.50;;;;;;;;12579269;28;8846;-54
2020/12/06 14:26:06;;;;;;;;;40.50;34.25;;;;;;;;12580622;28;9582;-54
2020/12/06 14:32:08;;;;;;;;;39.25;34.75;;;;;;;;12581245;28;8864;-52
2020/12/06 14:38:09;;;;;;;;;39.50;36.00;;;;;;;;12578502;28;8934;-50
2020/12/06 14:44:11;;;;;;;;;48.75;42.75;;;;;;;;12580107;28;8854;-51
2020/12/06 14:50:12;;;;;;;;;34.00;29.25;;;;;;;;12577775;28;8818;-54
2020/12/06 14:56:13;;;;;;;;;37.25;36.25;;;;;;;;12577387;28;8849;-53
2020/12/06 15:02:15;;;;;;;;;41.75;34.00;;;;;;;;12579820;28;8858;-53
2020/12/06 15:08:17;;;;;;;;;52.75;45.00;;;;;;;;12577264;28;8873;-55
2020/12/06 15:14:19;;;;;;;;;38.50;33.50;;;;;;;;12578807;28;8826;-55
2020/12/06 15:20:20;;;;;;;;;50.75;43.00;;;;;;;;12582796;28;8838;-54
2020/12/06 15:26:21;;;;;;;;;44.00;40.25;;;;;;;;12586768;28;8845;-54
2020/12/06 15:32:23;;;;;;;;;32.00;31.25;;;;;;;;12588272;28;8948;-56
2020/12/06 15:38:24;;;;;;;;;28.00;24.75;;;;;;;;12585644;28;8936;-50
2020/12/06 15:44:27;;;;;;;;;38.75;35.00;;;;;;;;12587427;28;8852;-53
2020/12/06 15:50:28;;;;;;;;;44.25;39.50;;;;;;;;12585134;28;8834;-53
2020/12/06 15:56:31;;;;;;;;;38.00;38.00;;;;;;;;12584616;28;8842;-58
2020/12/06 16:02:32;;;;;;;;;22.00;22.00;;;;;;;;12586455;28;8944;-52
2020/12/06 16:08:35;;;;;;;;;36.25;29.75;;;;;;;;12584761;28;9598;-55
2020/12/06 16:14:37;;;;;;;;;40.25;32.25;;;;;;;;12577262;28;8838;-53
2020/12/06 16:20:38;;;;;;;;;34.00;30.75;;;;;;;;12584060;28;8845;-55
2020/12/06 16:26:39;;;;;;;;;30.25;28.25;;;;;;;;12576160;28;9834;-53
2020/12/06 16:32:45;;;;;;;;;34.00;31.00;;;;;;;;12585941;28;8907;-52
2020/12/06 16:38:46;;;;;;;;;33.25;30.25;;;;;;;;12583905;28;9387;-50
2020/12/06 16:44:48;;;;;;;;;37.25;33.00;;;;;;;;12584618;28;8882;-53
2020/12/06 16:50:49;;;;;;;;;32.50;28.25;;;;;;;;12582525;28;8874;-50
2020/12/06 16:57:05;;;;;;;;;29.00;28.50;;;;;;;;12575383;28;8849;-53
2020/12/06 17:03:07;;;;;;;;;30.00;28.25;;;;;;;;12579704;28;9581;-57
2020/12/06 17:09:25;;;;;;;;;33.00;30.25;;;;;;;;12582789;28;8826;-56
2020/12/06 17:15:27;;;;;;;;;25.00;24.75;;;;;;;;12582653;28;9594;-51
2020/12/06 17:21:28;;;;;;;;;16.25;15.00;;;;;;;;12580906;28;8830;-50
2020/12/06 17:27:31;;;;;;;;;31.00;25.75;;;;;;;;12582051;28;8898;-49
2020/12/06 17:33:32;;;;;;;;;24.00;23.00;;;;;;;;12581034;28;8849;-53
2020/12/06 17:39:33;;;;;;;;;18.00;16.75;;;;;;;;12579680;28;8841;-54
2020/12/06 17:45:37;;;;;;;;;30.00;26.00;;;;;;;;12581230;28;8856;-52
2020/12/06 17:51:38;;;;;;;;;28.25;25.50;;;;;;;;12579247;28;8846;-52
2020/12/06 17:57:40;;;;;;;;;32.00;31.75;;;;;;;;12579961;28;8892;-52
2020/12/06 18:03:42;;;;;;;;;35.75;32.25;;;;;;;;12580710;28;8914;-55
2020/12/06 18:09:43;;;;;;;;;22.50;18.50;;;;;;;;12579472;28;8890;-53
2020/12/06 18:15:45;;;;;;;;;24.25;22.75;;;;;;;;12580935;28;8838;-54
2020/12/06 18:21:46;;;;;;;;;30.75;28.00;;;;;;;;12578717;28;8868;-53
2020/12/06 18:27:47;;;;;;;;;17.25;11.00;;;;;;;;12579049;28;8938;-53
2020/12/06 18:33:49;;;;;;;;;22.00;17.00;;;;;;;;12578903;28;8880;-53
2020/12/06 18:39:51;;;;;;;;;28.50;27.25;;;;;;;;12577891;28;8841;-53
2020/12/06 18:45:52;;;;;;;;;30.00;23.00;;;;;;;;12580192;28;8898;-54
2020/12/06 18:51:53;;;;;;;;;24.75;21.50;;;;;;;;12580021;28;8934;-54
2020/12/06 18:57:55;;;;;;;;;30.75;28.25;;;;;;;;12582472;28;8951;-52
2020/12/06 19:03:56;;;;;;;;;23.00;21.00;;;;;;;;12588154;28;8853;-56
2020/12/06 19:09:58;;;;;;;;;28.75;28.25;;;;;;;;12587739;28;8846;-55
2020/12/06 19:16:01;;;;;;;;;32.50;25.50;;;;;;;;12588134;28;8833;-52
2020/12/06 19:22:02;;;;;;;;;34.50;30.00;;;;;;;;12586366;28;8880;-52
2020/12/06 19:28:03;;;;;;;;;23.25;17.25;;;;;;;;12587777;28;8890;-55
2020/12/06 19:34:05;;;;;;;;;20.25;18.00;;;;;;;;12587531;28;8980;-57
2020/12/06 19:40:08;;;;;;;;;28.75;27.00;;;;;;;;12586657;28;8892;-53
2020/12/06 19:46:10;;;;;;;;;33.00;29.50;;;;;;;;12587425;28;8980;-56
2020/12/06 19:52:11;;;;;;;;;33.00;28.00;;;;;;;;12585800;28;8838;-53
2020/12/06 19:58:13;;;;;;;;;35.00;26.50;;;;;;;;12585321;28;8834;-55
2020/12/06 20:04:14;;;;;;;;;27.50;26.00;;;;;;;;12585426;28;8842;-54
2020/12/06 20:10:16;;;;;;;;;34.25;30.75;;;;;;;;12584828;28;8829;-53
2020/12/06 20:16:17;;;;;;;;;40.00;35.00;;;;;;;;12586323;28;8875;-58
2020/12/06 20:22:19;;;;;;;;;35.75;32.75;;;;;;;;12583923;28;8825;-52
2020/12/06 20:28:28;;;;;;;;;27.50;25.00;;;;;;;;12584290;28;8822;-51
2020/12/06 20:34:31;;;;;;;;;28.25;26.25;;;;;;;;12584831;28;8830;-53
2020/12/06 20:40:33;;;;;;;;;30.25;28.00;;;;;;;;12581823;28;8845;-51
2020/12/06 20:46:34;;;;;;;;;32.00;25.50;;;;;;;;12584121;28;8864;-54
2020/12/06 20:52:37;;;;;;;;;32.00;26.75;;;;;;;;12582046;28;8949;-52
2020/12/06 20:58:38;;;;;;;;;35.50;31.00;;;;;;;;12583445;28;8960;-51
2020/12/06 21:04:39;;;;;;;;;37.50;30.50;;;;;;;;12583174;28;8869;-57
2020/12/06 21:10:41;;;;;;;;;37.75;35.25;;;;;;;;12581901;28;8850;-52
2020/12/06 21:16:42;;;;;;;;;36.50;34.00;;;;;;;;12582482;28;8834;-51
2020/12/06 21:22:43;;;;;;;;;39.25;28.50;;;;;;;;12580741;28;8838;-52
2020/12/06 21:28:45;;;;;;;;;46.75;43.25;;;;;;;;12582029;28;8857;-53
2020/12/06 21:34:49;;;;;;;;;50.50;44.25;;;;;;;;12582414;28;9614;-53
2020/12/06 21:40:50;;;;;;;;;46.50;41.25;;;;;;;;12579990;28;8886;-54
2020/12/06 21:46:52;;;;;;;;;59.25;47.25;;;;;;;;12581701;28;8837;-54
2020/12/06 21:52:53;;;;;;;;;46.75;42.75;;;;;;;;12579827;28;8850;-52
2020/12/06 21:58:55;;;;;;;;;49.25;39.50;;;;;;;;12571321;28;8899;-52
2020/12/06 22:04:57;;;;;;;;;40.00;38.25;;;;;;;;12579739;28;8846;-53
2020/12/06 22:10:58;;;;;;;;;31.50;25.25;;;;;;;;12579438;28;8826;-60
2020/12/06 22:17:00;;;;;;;;;37.50;32.50;;;;;;;;12581850;28;8846;-53
2020/12/06 22:23:02;;;;;;;;;46.75;39.25;;;;;;;;12578437;28;8857;-53
2020/12/06 22:29:03;;;;;;;;;50.75;43.25;;;;;;;;12578650;28;8829;-54
2020/12/06 22:35:05;;;;;;;;;38.50;35.50;;;;;;;;12579018;28;8852;-54
2020/12/06 22:41:07;;;;;;;;;37.00;34.25;;;;;;;;12579205;28;9582;-53
2020/12/06 22:47:08;;;;;;;;;40.25;34.25;;;;;;;;12579796;28;8841;-48
2020/12/06 22:53:09;;;;;;;;;22.25;18.25;;;;;;;;12578512;28;9614;-53
2020/12/06 22:59:11;;;;;;;;;40.00;34.25;;;;;;;;12578448;28;9613;-54
2020/12/06 23:05:13;;;;;;;;;35.00;30.50;;;;;;;;12578744;28;8838;-49
2020/12/06 23:11:14;;;;;;;;;36.25;32.25;;;;;;;;12578123;28;8853;-52
2020/12/06 23:17:16;;;;;;;;;35.00;34.50;;;;;;;;12578406;28;8841;-53
2020/12/06 23:23:17;;;;;;;;;36.75;34.25;;;;;;;;12578211;28;8834;-50
2020/12/06 23:29:19;;;;;;;;;44.75;41.50;;;;;;;;12578174;28;8833;-53
2020/12/06 23:35:20;;;;;;;;;36.50;33.75;;;;;;;;12579489;28;8918;-50
2020/12/06 23:41:26;;;;;;;;;37.75;37.75;;;;;;;;12583044;28;8826;-52
2020/12/06 23:47:27;;;;;;;;;37.33;30.33;;;;;;;;12587324;28;8838;-49
2020/12/06 23:53:28;;;;;;;;;43.00;38.67;;;;;;;;12585993;28;8840;-48
2020/12/06 23:59:31;;;;;;;;;36.00;31.00;;;;;;;;12585230;28;8826;-51
